createdAt,value
2023-04-27T00:00:48.879Z,99261.02
2023-04-27T00:04:04.345Z,99259.73
2023-04-27T00:06:56.042Z,99258.97
2023-04-27T00:10:18.944Z,99259.25
2023-04-27T00:13:35.020Z,99259.83
2023-04-27T00:16:56.873Z,99257.09
2023-04-27T00:20:20.230Z,99255.16
2023-04-27T00:23:47.789Z,99261.61
2023-04-27T00:27:31.231Z,99267.42
2023-04-27T00:30:32.767Z,99277.86
2023-04-27T00:34:02.647Z,99282.71
2023-04-27T00:37:14.572Z,99282.92
2023-04-27T00:40:06.194Z,99294.24
2023-04-27T00:43:15.204Z,99300.14
2023-04-27T00:46:35.120Z,99299.17
2023-04-27T00:50:18.316Z,99307.83
2023-04-27T00:53:25.593Z,99307.92
2023-04-27T00:57:13.585Z,99305.99
2023-04-27T01:00:32.795Z,99306.69
2023-04-27T01:03:52.057Z,99311.02
2023-04-27T01:07:39.633Z,99314.83
2023-04-27T01:11:27.573Z,99314.34
2023-04-27T01:14:14.683Z,99312.37
2023-04-27T01:17:32.633Z,99310.42
2023-04-27T01:20:51.751Z,99309.91
2023-04-27T01:24:00.313Z,99315.28
2023-04-27T01:27:37.412Z,99317.66
2023-04-27T01:31:05.506Z,99327.89
2023-04-27T01:34:13.048Z,99328.66
2023-04-27T01:37:41.086Z,99335.15
2023-04-27T01:41:04.030Z,99334.77
2023-04-27T01:44:23.492Z,99333.02
2023-04-27T01:47:52.814Z,99325.27
2023-04-27T01:51:05.974Z,99325.27
2023-04-27T01:54:31.383Z,99324.13
2023-04-27T01:57:56.708Z,99327.79
2023-04-27T02:01:12.278Z,99334.67
2023-04-27T02:04:51.619Z,99329.77
2023-04-27T02:08:07.883Z,99330.64
2023-04-27T02:11:27.996Z,99328.08
2023-04-27T02:14:32.341Z,99329.83
2023-04-27T02:17:54.087Z,99330.75
2023-04-27T02:20:47.572Z,99334.05
2023-04-27T02:23:36.086Z,99333.88
2023-04-27T02:26:56.076Z,99333.29
2023-04-27T02:30:01.560Z,99332.80
2023-04-27T02:33:23.053Z,99334.92
2023-04-27T02:36:13.364Z,99339.70
2023-04-27T02:38:50.017Z,99348.98
2023-04-27T02:41:39.691Z,99352.23
2023-04-27T02:44:40.971Z,99352.38
2023-04-27T02:47:43.922Z,99351.48
2023-04-27T02:50:40.370Z,99357.89
2023-04-27T02:53:21.358Z,99353.55
2023-04-27T02:55:50.031Z,99362.40
2023-04-27T02:58:23.429Z,99360.43
2023-04-27T03:01:14.805Z,99362.31
2023-04-27T03:04:18.827Z,99365.86
2023-04-27T03:07:06.695Z,99374.98
2023-04-27T03:09:52.928Z,99375.06
2023-04-27T03:12:25.376Z,99378.57
2023-04-27T03:15:13.611Z,99388.60
2023-04-27T03:17:49.262Z,99390.11
2023-04-27T03:20:27.470Z,99391.02
2023-04-27T03:23:02.710Z,99390.94
2023-04-27T03:25:36.261Z,99390.00
2023-04-27T03:28:31.359Z,99392.64
2023-04-27T03:31:44.883Z,99401.45
2023-04-27T03:34:55.835Z,99404.99
2023-04-27T03:37:46.330Z,99412.73
2023-04-27T03:40:45.742Z,99417.75
2023-04-27T03:43:44.126Z,99418.33
2023-04-27T03:46:29.239Z,99422.09
2023-04-27T03:49:26.380Z,99424.48
2023-04-27T03:51:55.152Z,99426.48
2023-04-27T03:54:30.785Z,99427.89
2023-04-27T03:57:14.837Z,99426.95
2023-04-27T03:59:57.218Z,99423.62
2023-04-27T04:02:41.261Z,99425.55
2023-04-27T04:05:59.232Z,99428.15
2023-04-27T04:09:04.755Z,99431.20
2023-04-27T04:11:33.364Z,99426.73
2023-04-27T04:14:24.249Z,99429.66
2023-04-27T04:17:12.332Z,99430.45
2023-04-27T04:20:23.184Z,99427.95
2023-04-27T04:23:13.199Z,99434.41
2023-04-27T04:25:52.132Z,99433.17
2023-04-27T04:29:29.835Z,99428.67
2023-04-27T04:32:27.022Z,99433.38
2023-04-27T04:35:35.253Z,99433.64
2023-04-27T04:38:43.272Z,99431.52
2023-04-27T04:42:23.584Z,99435.48
2023-04-27T04:45:36.549Z,99439.77
2023-04-27T04:48:27.647Z,99441.52
2023-04-27T04:51:27.141Z,99441.91
2023-04-27T04:54:22.429Z,99434.05
2023-04-27T04:57:08.321Z,99440.42
2023-04-27T05:00:06.781Z,99439.40
2023-04-27T05:02:55.975Z,99438.22
2023-04-27T05:05:28.875Z,99438.77
2023-04-27T05:08:36.377Z,99438.73
2023-04-27T05:11:05.625Z,99437.83
2023-04-27T05:13:46.716Z,99443.11
2023-04-27T05:16:44.228Z,99446.02
2023-04-27T05:19:32.142Z,99443.26
2023-04-27T05:22:42.711Z,99450.94
2023-04-27T05:25:15.580Z,99458.23
2023-04-27T05:27:49.281Z,99461.83
2023-04-27T05:30:34.309Z,99459.49
2023-04-27T05:33:07.625Z,99460.95
2023-04-27T05:35:45.197Z,99462.93
2023-04-27T05:38:40.285Z,99462.81
2023-04-27T05:41:51.178Z,99464.02
2023-04-27T05:44:42.004Z,99469.02
2023-04-27T05:47:09.669Z,99466.67
2023-04-27T05:49:53.725Z,99466.77
2023-04-27T05:52:37.552Z,99470.30
2023-04-27T05:55:39.124Z,99473.55
2023-04-27T05:58:20.609Z,99475.17
2023-04-27T06:01:18.682Z,99481.39
2023-04-27T06:03:47.388Z,99484.09
2023-04-27T06:06:18.221Z,99482.95
2023-04-27T06:08:59.955Z,99484.03
2023-04-27T06:11:38.948Z,99481.11
2023-04-27T06:14:31.858Z,99487.17
2023-04-27T06:17:11.279Z,99488.06
2023-04-27T06:20:00.145Z,99487.74
2023-04-27T06:22:50.261Z,99482.33
2023-04-27T06:25:41.125Z,99485.30
2023-04-27T06:28:09.288Z,99484.83
2023-04-27T06:30:42.075Z,99484.59
2023-04-27T06:33:23.504Z,99484.52
2023-04-27T06:36:25.469Z,99488.20
2023-04-27T06:38:55.970Z,99497.41
2023-04-27T06:42:29.186Z,99493.20
2023-04-27T06:45:20.005Z,99503.86
2023-04-27T06:48:08.213Z,99501.85
2023-04-27T06:50:46.348Z,99504.58
2023-04-27T06:53:13.722Z,99506.27
2023-04-27T06:55:43.954Z,99507.44
2023-04-27T06:58:18.008Z,99511.73
2023-04-27T07:00:54.124Z,99518.36
2023-04-27T07:06:26.731Z,99520.68
2023-04-27T07:08:57.102Z,99518.13
2023-04-27T07:11:27.777Z,99524.45
2023-04-27T07:13:55.645Z,99528.99
2023-04-27T07:16:25.754Z,99531.72
2023-04-27T07:18:53.290Z,99536.21
2023-04-27T07:21:43.363Z,99538.95
2023-04-27T07:24:34.720Z,99539.61
2023-04-27T07:27:08.376Z,99541.16
2023-04-27T07:29:54.943Z,99537.69
2023-04-27T07:32:33.925Z,99542.42
2023-04-27T07:35:15.043Z,99544.98
2023-04-27T07:37:44.321Z,99540.99
2023-04-27T07:40:16.926Z,99543.52
2023-04-27T07:42:56.428Z,99545.27
2023-04-27T07:45:31.971Z,99547.54
2023-04-27T07:48:06.304Z,99547.74
2023-04-27T07:50:36.853Z,99545.64
2023-04-27T07:53:04.494Z,99542.39
2023-04-27T07:55:35.567Z,99542.84
2023-04-27T07:58:06.361Z,99548.10
2023-04-27T08:00:33.398Z,99552.55
2023-04-27T08:03:09.906Z,99553.42
2023-04-27T08:05:43.526Z,99553.77
2023-04-27T08:08:19.056Z,99554.02
2023-04-27T08:10:50.581Z,99558.48
2023-04-27T08:13:40.758Z,99559.81
2023-04-27T08:16:08.253Z,99562.88
2023-04-27T08:18:45.096Z,99564.41
2023-04-27T08:21:12.551Z,99567.59
2023-04-27T08:23:50.966Z,99569.88
2023-04-27T08:26:18.512Z,99568.54
2023-04-27T08:28:54.995Z,99573.13
2023-04-27T08:31:25.174Z,99572.49
2023-04-27T08:33:53.115Z,99572.94
2023-04-27T08:36:24.637Z,99575.07
2023-04-27T08:38:52.485Z,99577.23
2023-04-27T08:41:24.072Z,99579.02
2023-04-27T08:43:51.834Z,99578.19
2023-04-27T08:46:22.871Z,99575.86
2023-04-27T08:48:50.736Z,99581.23
2023-04-27T08:51:21.431Z,99579.31
2023-04-27T08:53:51.093Z,99583.13
2023-04-27T08:56:19.062Z,99586.27
2023-04-27T08:58:46.210Z,99587.01
2023-04-27T09:01:13.881Z,99585.57
2023-04-27T09:03:41.561Z,99587.92
2023-04-27T09:06:09.349Z,99582.58
2023-04-27T09:09:06.713Z,99590.54
2023-04-27T09:11:35.133Z,99590.23
2023-04-27T09:14:11.507Z,99592.78
2023-04-27T09:16:39.036Z,99593.34
2023-04-27T09:19:06.318Z,99595.30
2023-04-27T09:21:36.643Z,99598.66
2023-04-27T09:24:13.767Z,99600.42
2023-04-27T09:26:43.211Z,99605.18
2023-04-27T09:29:10.634Z,99604.98
2023-04-27T09:31:54.296Z,99608.08
2023-04-27T09:34:41.405Z,99607.48
2023-04-27T09:37:08.595Z,99608.62
2023-04-27T09:39:35.849Z,99605.74
2023-04-27T09:42:04.609Z,99611.02
2023-04-27T09:44:32.300Z,99613.25
2023-04-27T09:47:00.173Z,99611.64
2023-04-27T09:49:29.300Z,99606.48
2023-04-27T09:51:58.999Z,99609.14
2023-04-27T09:54:28.482Z,99610.43
2023-04-27T09:56:58.704Z,99607.45
2023-04-27T09:59:48.007Z,99608.80
2023-04-27T10:02:25.264Z,99611.02
2023-04-27T10:05:00.535Z,99611.77
2023-04-27T10:07:27.754Z,99612.73
2023-04-27T10:09:56.230Z,99617.91
2023-04-27T10:12:27.359Z,99614.88
2023-04-27T10:14:57.604Z,99620.00
2023-04-27T10:17:32.260Z,99614.20
2023-04-27T10:20:01.251Z,99610.96
2023-04-27T10:22:47.926Z,99612.52
2023-04-27T10:25:24.622Z,99610.21
2023-04-27T10:27:53.620Z,99613.82
2023-04-27T10:30:21.692Z,99611.70
2023-04-27T10:32:59.081Z,99614.42
2023-04-27T10:35:33.396Z,99614.64
2023-04-27T10:38:21.374Z,99615.27
2023-04-27T10:40:57.242Z,99622.42
2023-04-27T10:43:27.317Z,99623.13
2023-04-27T10:45:54.679Z,99627.52
2023-04-27T10:49:03.136Z,99630.58
2023-04-27T10:51:30.123Z,99635.81
2023-04-27T10:53:57.161Z,99637.71
2023-04-27T10:56:25.543Z,99638.11
2023-04-27T10:58:53.612Z,99640.09
2023-04-27T11:01:25.776Z,99642.57
2023-04-27T11:03:59.049Z,99642.62
2023-04-27T11:06:26.531Z,99636.45
2023-04-27T11:08:54.008Z,99637.51
2023-04-27T11:11:21.150Z,99634.30
2023-04-27T11:13:49.646Z,99636.09
2023-04-27T11:16:19.503Z,99639.80
2023-04-27T11:18:47.095Z,99643.84
2023-04-27T11:21:16.120Z,99638.73
2023-04-27T11:23:44.173Z,99640.89
2023-04-27T11:26:17.868Z,99640.40
2023-04-27T11:29:06.114Z,99641.33
2023-04-27T11:31:47.862Z,99643.23
2023-04-27T11:34:24.575Z,99645.40
2023-04-27T11:37:10.651Z,99649.86
2023-04-27T11:39:42.227Z,99650.85
2023-04-27T11:42:35.759Z,99651.04
2023-04-27T11:45:07.144Z,99650.05
2023-04-27T11:47:36.267Z,99654.67
2023-04-27T11:50:05.422Z,99651.70
2023-04-27T11:52:33.314Z,99659.10
2023-04-27T11:55:00.871Z,99659.73
2023-04-27T11:57:33.961Z,99663.62
2023-04-27T12:00:02.777Z,99666.05
2023-04-27T12:02:40.868Z,99664.86
2023-04-27T12:05:10.160Z,99664.64
2023-04-27T12:07:37.641Z,99666.23
2023-04-27T12:10:07.052Z,99665.50
2023-04-27T12:12:34.885Z,99662.12
2023-04-27T12:15:06.824Z,99661.45
2023-04-27T12:17:35.452Z,99655.69
2023-04-27T12:20:02.617Z,99649.42
2023-04-27T12:22:29.935Z,99650.19
2023-04-27T12:24:58.515Z,99656.81
2023-04-27T12:27:26.834Z,99656.45
2023-04-27T12:29:59.817Z,99657.04
2023-04-27T12:32:28.167Z,99657.64
2023-04-27T12:34:58.075Z,99658.31
2023-04-27T12:37:27.002Z,99664.91
2023-04-27T12:39:55.247Z,99663.06
2023-04-27T12:42:24.490Z,99668.84
2023-04-27T12:44:52.924Z,99669.48
2023-04-27T12:47:45.823Z,99676.46
2023-04-27T12:50:11.436Z,99681.88
2023-04-27T12:52:38.502Z,99684.77
2023-04-27T12:55:10.918Z,99684.85
2023-04-27T12:58:38.325Z,99681.92
2023-04-27T13:01:12.497Z,99681.02
2023-04-27T13:03:40.095Z,99684.64
2023-04-27T13:06:08.538Z,99685.16
2023-04-27T13:08:37.321Z,99682.59
2023-04-27T13:11:04.631Z,99687.64
2023-04-27T13:13:32.114Z,99684.94
2023-04-27T13:15:59.437Z,99687.15
2023-04-27T13:18:26.592Z,99684.58
2023-04-27T13:20:53.742Z,99688.80
2023-04-27T13:23:20.758Z,99691.44
2023-04-27T13:25:47.898Z,99696.67
2023-04-27T13:28:14.963Z,99696.50
2023-04-27T13:30:42.304Z,99695.29
2023-04-27T13:33:22.525Z,99696.60
2023-04-27T13:35:53.658Z,99699.98
2023-04-27T13:38:21.016Z,99703.97
2023-04-27T13:40:48.282Z,99701.40
2023-04-27T13:43:15.210Z,99696.63
2023-04-27T13:45:43.189Z,99700.53
2023-04-27T13:48:10.697Z,99696.98
2023-04-27T13:50:37.992Z,99699.30
2023-04-27T13:53:05.260Z,99704.64
2023-04-27T13:55:32.597Z,99707.88
2023-04-27T13:57:59.753Z,99710.20
2023-04-27T14:00:28.957Z,99712.50
2023-04-27T14:02:56.208Z,99711.17
2023-04-27T14:05:23.454Z,99714.17
2023-04-27T14:07:50.617Z,99713.05
2023-04-27T14:10:17.968Z,99709.98
2023-04-27T14:12:45.294Z,99708.72
2023-04-27T14:15:12.781Z,99711.02
2023-04-27T14:17:39.940Z,99713.78
2023-04-27T14:20:08.064Z,99715.52
2023-04-27T14:22:36.183Z,99714.66
2023-04-27T14:25:03.647Z,99718.66
2023-04-27T14:27:30.785Z,99720.83
2023-04-27T14:29:58.655Z,99721.30
2023-04-27T14:32:26.515Z,99729.21
2023-04-27T14:34:54.192Z,99733.45
2023-04-27T14:37:21.641Z,99733.86
2023-04-27T14:39:48.957Z,99737.05
2023-04-27T14:42:16.722Z,99739.23
2023-04-27T14:44:45.148Z,99744.40
2023-04-27T14:47:12.261Z,99739.59
2023-04-27T14:49:39.338Z,99743.80
2023-04-27T14:52:08.077Z,99744.95
2023-04-27T14:54:35.941Z,99742.63
2023-04-27T14:57:03.301Z,99741.22
2023-04-27T14:59:30.862Z,99745.05
2023-04-27T15:01:57.944Z,99741.38
2023-04-27T15:04:25.195Z,99739.76
2023-04-27T15:06:54.926Z,99734.48
2023-04-27T15:09:22.223Z,99738.30
2023-04-27T15:11:49.271Z,99742.24
2023-04-27T15:14:17.243Z,99751.29
2023-04-27T15:16:44.290Z,99754.01
2023-04-27T15:19:12.153Z,99752.21
2023-04-27T15:21:40.124Z,99752.85
2023-04-27T15:24:07.401Z,99754.91
2023-04-27T15:26:34.331Z,99753.54
2023-04-27T15:29:04.853Z,99759.59
2023-04-27T15:31:32.068Z,99758.13
2023-04-27T15:33:59.257Z,99762.65
2023-04-27T15:36:28.889Z,99763.40
2023-04-27T15:38:56.427Z,99761.20
2023-04-27T15:41:23.650Z,99764.96
2023-04-27T15:43:51.577Z,99766.73
2023-04-27T15:46:19.191Z,99768.42
2023-04-27T15:48:46.869Z,99766.96
2023-04-27T15:51:13.933Z,99773.49
2023-04-27T15:53:40.858Z,99769.20
2023-04-27T15:56:07.821Z,99767.34
2023-04-27T15:58:34.853Z,99766.27
2023-04-27T16:01:02.112Z,99765.90
2023-04-27T16:03:29.383Z,99766.73
2023-04-27T16:05:59.580Z,99766.61
2023-04-27T16:08:28.170Z,99772.22
2023-04-27T16:10:56.047Z,99769.91
2023-04-27T16:13:24.104Z,99773.34
2023-04-27T16:15:51.460Z,99772.46
2023-04-27T16:18:18.514Z,99774.95
2023-04-27T16:20:46.784Z,99774.95
2023-04-27T16:23:14.047Z,99779.30
2023-04-27T16:25:41.661Z,99790.59
2023-04-27T16:28:12.844Z,99791.90
2023-04-27T16:30:39.913Z,99796.71
2023-04-27T16:33:06.912Z,99800.91
2023-04-27T16:35:36.136Z,99796.04
2023-04-27T16:38:05.972Z,99795.47
2023-04-27T16:40:34.062Z,99795.45
2023-04-27T16:43:02.514Z,99793.15
2023-04-27T16:45:29.669Z,99798.98
2023-04-27T16:47:57.303Z,99789.81
2023-04-27T16:50:25.600Z,99789.09
2023-04-27T16:52:52.745Z,99787.35
2023-04-27T16:55:19.895Z,99786.61
2023-04-27T16:57:50.931Z,99778.11
2023-04-27T17:00:18.393Z,99777.08
2023-04-27T17:02:45.298Z,99777.06
2023-04-27T17:05:13.984Z,99779.17
2023-04-27T17:07:41.176Z,99775.73
2023-04-27T17:10:09.417Z,99780.86
2023-04-27T17:12:37.728Z,99784.45
2023-04-27T17:15:05.887Z,99787.38
2023-04-27T17:17:34.311Z,99790.98
2023-04-27T17:20:01.530Z,99797.26
2023-04-27T17:22:30.221Z,99804.93
2023-04-27T17:24:57.827Z,99806.41
2023-04-27T17:27:25.962Z,99813.05
2023-04-27T17:29:54.041Z,99818.86
2023-04-27T17:32:21.212Z,99822.75
2023-04-27T17:34:49.054Z,99823.61
2023-04-27T17:37:16.503Z,99830.20
2023-04-27T17:39:43.554Z,99833.13
2023-04-27T17:42:12.804Z,99841.79
2023-04-27T17:44:42.531Z,99840.20
2023-04-27T17:47:09.820Z,99843.58
2023-04-27T17:49:38.521Z,99846.81
2023-04-27T17:52:05.866Z,99852.14
2023-04-27T17:54:33.426Z,99858.20
2023-04-27T17:57:00.911Z,99854.52
2023-04-27T17:59:29.161Z,99863.27
2023-04-27T18:01:59.296Z,99861.04
2023-04-27T18:04:27.080Z,99857.00
2023-04-27T18:06:54.493Z,99853.78
2023-04-27T18:09:21.531Z,99852.40
2023-04-27T18:11:48.739Z,99849.27
2023-04-27T18:14:21.688Z,99846.98
2023-04-27T18:16:51.366Z,99851.05
2023-04-27T18:19:18.613Z,99851.41
2023-04-27T18:21:46.556Z,99853.21
2023-04-27T18:24:13.812Z,99860.73
2023-04-27T18:26:41.169Z,99861.59
2023-04-27T18:29:08.422Z,99861.86
2023-04-27T18:31:36.388Z,99869.95
2023-04-27T18:34:03.846Z,99869.79
2023-04-27T18:36:31.810Z,99871.81
2023-04-27T18:39:01.337Z,99874.29
2023-04-27T18:41:29.800Z,99872.23
2023-04-27T18:44:03.778Z,99877.15
2023-04-27T18:46:31.062Z,99880.16
2023-04-27T18:48:58.511Z,99882.33
2023-04-27T18:51:26.588Z,99879.98
2023-04-27T18:53:57.455Z,99884.97
2023-04-27T18:56:35.127Z,99887.74
2023-04-27T18:59:05.153Z,99885.50
2023-04-27T19:01:32.528Z,99890.61
2023-04-27T19:04:03.002Z,99894.41
2023-04-27T19:06:31.600Z,99892.17
2023-04-27T19:08:58.768Z,99892.02
2023-04-27T19:11:26.135Z,99884.77
2023-04-27T19:13:54.189Z,99882.35
2023-04-27T19:16:23.304Z,99875.58
2023-04-27T19:18:50.659Z,99870.84
2023-04-27T19:21:17.906Z,99871.96
2023-04-27T19:23:46.587Z,99873.53
2023-04-27T19:26:14.365Z,99874.59
2023-04-27T19:28:41.815Z,99880.16
2023-04-27T19:31:09.036Z,99882.95
2023-04-27T19:33:36.413Z,99885.66
2023-04-27T19:36:04.009Z,99886.52
2023-04-27T19:38:33.605Z,99886.63
2023-04-27T19:41:00.841Z,99890.75
2023-04-27T19:43:29.419Z,99892.67
2023-04-27T19:45:57.120Z,99895.58
2023-04-27T19:48:24.332Z,99898.66
2023-04-27T19:50:51.822Z,99905.65
2023-04-27T19:53:19.452Z,99905.60
2023-04-27T19:55:46.829Z,99912.02
2023-04-27T19:58:14.984Z,99910.40
2023-04-27T20:00:42.152Z,99915.81
2023-04-27T20:03:09.376Z,99918.38
2023-04-27T20:05:37.865Z,99921.77
2023-04-27T20:08:05.333Z,99919.55
2023-04-27T20:10:33.296Z,99921.73
2023-04-27T20:13:00.749Z,99925.11
2023-04-27T20:15:27.801Z,99925.63
2023-04-27T20:17:55.229Z,99929.38
2023-04-27T20:20:22.686Z,99936.33
2023-04-27T20:22:49.785Z,99933.07
2023-04-27T20:25:17.218Z,99935.60
2023-04-27T20:27:44.368Z,99939.35
2023-04-27T20:30:11.820Z,99934.48
2023-04-27T20:32:41.652Z,99936.94
2023-04-27T20:35:11.733Z,99933.84
2023-04-27T20:37:39.459Z,99933.50
2023-04-27T20:40:07.960Z,99932.20
2023-04-27T20:42:39.048Z,99933.14
2023-04-27T20:45:07.164Z,99937.45
2023-04-27T20:47:34.298Z,99934.94
2023-04-27T20:50:04.295Z,99936.69
2023-04-27T20:52:33.809Z,99936.80
2023-04-27T20:55:05.869Z,99933.67
2023-04-27T20:57:36.311Z,99934.18
2023-04-27T21:00:04.385Z,99933.33
2023-04-27T21:02:31.546Z,99935.22
2023-04-27T21:04:58.661Z,99932.94
2023-04-27T21:07:26.954Z,99932.77
2023-04-27T21:09:54.085Z,99935.39
2023-04-27T21:12:21.136Z,99932.21
2023-04-27T21:14:48.286Z,99938.77
2023-04-27T21:17:15.605Z,99941.62
2023-04-27T21:19:42.685Z,99947.81
2023-04-27T21:22:09.636Z,99952.93
2023-04-27T21:24:36.812Z,99947.15
2023-04-27T21:27:04.088Z,99946.66
2023-04-27T21:29:31.529Z,99941.23
2023-04-27T21:31:58.571Z,99939.85
2023-04-27T21:34:25.596Z,99932.97
2023-04-27T21:36:52.743Z,99937.36
2023-04-27T21:39:19.796Z,99938.02
2023-04-27T21:41:46.944Z,99939.26
2023-04-27T21:44:14.612Z,99933.21
2023-04-27T21:46:42.650Z,99931.50
2023-04-27T21:49:09.851Z,99932.98
2023-04-27T21:51:37.178Z,99930.06
2023-04-27T21:54:04.431Z,99926.70
2023-04-27T21:56:31.379Z,99929.45
2023-04-27T21:58:58.430Z,99926.23
2023-04-27T22:01:27.161Z,99923.60
2023-04-27T22:03:54.536Z,99926.77
2023-04-27T22:06:22.235Z,99927.50
2023-04-27T22:08:49.412Z,99938.41
2023-04-27T22:11:17.133Z,99935.41
2023-04-27T22:13:45.223Z,99937.45
2023-04-27T22:16:13.797Z,99934.19
2023-04-27T22:18:41.729Z,99936.14
2023-04-27T22:21:10.385Z,99934.27
2023-04-27T22:23:37.540Z,99932.52
2023-04-27T22:26:05.147Z,99933.07
2023-04-27T22:28:32.866Z,99927.83
2023-04-27T22:31:03.987Z,99922.80
2023-04-27T22:33:32.179Z,99919.88
2023-04-27T22:35:59.568Z,99918.71
2023-04-27T22:38:26.774Z,99916.91
2023-04-27T22:40:53.849Z,99923.59
2023-04-27T22:43:20.997Z,99927.23
2023-04-27T22:45:50.402Z,99927.89
2023-04-27T22:48:17.350Z,99924.20
2023-04-27T22:50:46.135Z,99921.61
2023-04-27T22:53:13.193Z,99919.70
2023-04-27T22:55:40.426Z,99918.17
2023-04-27T22:58:07.689Z,99922.24
2023-04-27T23:00:34.835Z,99922.35
2023-04-27T23:03:02.197Z,99922.41
2023-04-27T23:07:58.897Z,99926.00
2023-04-27T23:10:27.030Z,99923.05
2023-04-27T23:12:55.198Z,99926.55
2023-04-27T23:15:24.226Z,99927.40
2023-04-27T23:17:51.622Z,99927.77
2023-04-27T23:20:27.919Z,99921.40
2023-04-27T23:22:56.055Z,99922.99
2023-04-27T23:25:23.355Z,99923.02
2023-04-27T23:27:52.146Z,99925.61
2023-04-27T23:30:21.049Z,99922.19
2023-04-27T23:32:48.645Z,99921.64
2023-04-27T23:35:15.928Z,99913.00
2023-04-27T23:37:44.102Z,99913.07
2023-04-27T23:40:12.476Z,99913.66
2023-04-27T23:42:39.436Z,99915.29
2023-04-27T23:45:07.735Z,99919.73
2023-04-27T23:47:34.873Z,99913.73
2023-04-27T23:50:03.952Z,99916.11
2023-04-27T23:52:30.980Z,99916.95
2023-04-27T23:54:59.256Z,99913.59
2023-04-27T23:57:26.513Z,99916.78
2023-04-27T23:59:53.582Z,99917.16
